Providence, Rhode Island
Traffic Map
Current Weather Conditions
Providence, Rhode Island
Clear
Clear

Feels Like: 1°
Wind Chill: Ceiling: Unl
Heat Index: Visibility: 10mi
Dew Point: -3° Wind: 5mph
Humidity: 65% Direction: 290° (WNW)
Pressure: 30.02in Gusts: 0mph
Raw Report DataKPVD 200751Z AUTO 29004KT 10SM CLR 03/M03 A3002 RMK AO2 SLP167 T00281033
Traffic Incident Summary
Active as of:
Severity:
Category:
InformationThere was an issue retrieving the traffic information for this location. Please try a different location or try again shortly.
Advertisements
Track Severe Weather on mobile